Time;durP1;ratioP1;P1;durP2;ratioP2;P2;SDS_P1;SDS_P2;PMS_P1;PMS_P2;Temp;Humidity;BMP_temperature;BMP_pressure;BME280_temperature;BME280_humidity;BME280_pressure;Samples;Min_cycle;Max_cycle;Signal;HPM_P1;HPM_P2
2021/03/07 00:00:24;;;;;;;19.73;10.80;;;-0.90;68.50;;;;;;5076088;28;20036;-67
2021/03/07 00:02:51;;;;;;;18.90;10.00;;;-1.00;68.60;;;;;;5094386;28;20027;-65
2021/03/07 00:05:17;;;;;;;18.08;9.95;;;-1.00;68.60;;;;;;5076207;28;20024;-65
2021/03/07 00:07:44;;;;;;;18.33;9.13;;;-1.00;68.60;;;;;;5094116;28;20036;-65
2021/03/07 00:10:12;;;;;;;18.58;8.60;;;-1.10;68.70;;;;;;5075994;28;20036;-65
2021/03/07 00:12:39;;;;;;;14.27;8.00;;;-1.10;68.70;;;;;;5075939;28;20053;-65
2021/03/07 00:15:07;;;;;;;13.70;7.72;;;-1.10;68.60;;;;;;5093997;28;20374;-64
2021/03/07 00:17:33;;;;;;;13.30;6.70;;;-1.20;68.60;;;;;;5075687;28;20055;-65
2021/03/07 00:19:59;;;;;;;11.25;6.80;;;-1.10;69.30;;;;;;5093990;28;20027;-65
2021/03/07 00:22:25;;;;;;;11.68;7.32;;;-1.10;68.60;;;;;;5093944;28;20394;-65
2021/03/07 00:24:51;;;;;;;11.25;6.10;;;-1.20;68.50;;;;;;5075895;28;20028;-65
2021/03/07 00:27:17;;;;;;;13.07;7.15;;;-1.20;68.50;;;;;;5093711;28;20031;-65
2021/03/07 00:29:43;;;;;;;14.50;7.43;;;-1.20;68.70;;;;;;5075486;28;20028;-65
2021/03/07 00:32:09;;;;;;;13.68;7.40;;;-1.20;68.60;;;;;;5094333;28;20455;-65
2021/03/07 00:34:35;;;;;;;14.77;7.65;;;-1.30;68.70;;;;;;5076079;28;20020;-65
2021/03/07 00:37:00;;;;;;;12.40;6.90;;;-1.20;68.70;;;;;;5093479;28;20067;-65
2021/03/07 00:39:26;;;;;;;14.45;7.53;;;-1.30;68.70;;;;;;5093678;28;20080;-65
2021/03/07 00:41:52;;;;;;;13.95;7.70;;;-1.30;68.80;;;;;;5075371;28;20393;-65
2021/03/07 00:44:18;;;;;;;15.65;8.10;;;-1.30;69.00;;;;;;5093342;28;20036;-65
2021/03/07 00:46:45;;;;;;;13.38;6.75;;;-1.30;69.10;;;;;;5075263;28;20433;-65
2021/03/07 00:49:12;;;;;;;14.90;7.40;;;-1.30;69.10;;;;;;5075315;28;20035;-65
2021/03/07 00:51:38;;;;;;;13.77;7.18;;;-1.40;69.00;;;;;;5080137;28;20112;-65
2021/03/07 00:54:04;;;;;;;15.70;7.32;;;-1.40;69.00;;;;;;5073326;28;20052;-65
2021/03/07 00:56:30;;;;;;;14.27;7.82;;;-1.40;69.10;;;;;;5073097;28;20090;-66
2021/03/07 00:58:56;;;;;;;15.27;8.25;;;-1.30;69.20;;;;;;5073142;28;20028;-69
2021/03/07 01:01:22;;;;;;;22.20;10.55;;;-1.40;68.90;;;;;;5073055;28;20025;-65
2021/03/07 01:03:48;;;;;;;16.20;9.45;;;-1.50;68.90;;;;;;5055197;28;20025;-65
2021/03/07 01:06:13;;;;;;;19.20;10.13;;;-1.60;69.20;;;;;;5073065;28;20028;-65
2021/03/07 01:08:39;;;;;;;18.48;9.73;;;-1.60;69.30;;;;;;5054960;28;20040;-64
2021/03/07 01:11:05;;;;;;;18.67;9.57;;;-1.70;69.40;;;;;;5054842;28;20029;-65
2021/03/07 01:13:31;;;;;;;20.27;8.50;;;-1.80;69.60;;;;;;5073337;28;20503;-65
2021/03/07 01:15:57;;;;;;;17.13;8.32;;;-1.80;69.80;;;;;;5073125;28;20163;-65
2021/03/07 01:18:23;;;;;;;16.02;7.22;;;-1.80;69.90;;;;;;5073354;28;20024;-65
2021/03/07 01:20:49;;;;;;;13.23;7.00;;;-1.90;70.00;;;;;;5055244;28;20017;-66
2021/03/07 01:23:18;;;;;;;16.60;8.32;;;-1.90;70.30;;;;;;5054569;28;20025;-66
2021/03/07 01:25:44;;;;;;;15.07;8.27;;;-2.00;70.50;;;;;;5054569;28;20065;-66
2021/03/07 01:28:09;;;;;;;15.60;9.00;;;-2.00;70.70;;;;;;5054971;28;20032;-66
2021/03/07 01:30:37;;;;;;;19.05;9.98;;;-2.00;70.80;;;;;;5072721;28;20020;-66
2021/03/07 01:33:05;;;;;;;20.83;10.55;;;-2.00;70.90;;;;;;5054717;28;20463;-66
2021/03/07 01:35:30;;;;;;;20.40;10.52;;;-2.00;71.00;;;;;;5088120;28;20020;-66
2021/03/07 01:37:56;;;;;;;17.15;9.90;;;-2.00;71.10;;;;;;5055065;28;20157;-66
2021/03/07 01:40:26;;;;;;;18.83;9.38;;;-2.00;71.20;;;;;;5072657;28;20032;-66
2021/03/07 01:42:56;;;;;;;15.70;9.13;;;-2.00;71.00;;;;;;5054938;28;20371;-66
2021/03/07 01:45:23;;;;;;;18.70;8.55;;;-2.00;71.20;;;;;;5055007;28;20024;-66
2021/03/07 01:47:52;;;;;;;17.20;9.18;;;-1.90;71.30;;;;;;5072813;28;20085;-66
2021/03/07 01:50:23;;;;;;;16.20;9.60;;;-1.90;71.20;;;;;;5073135;28;20035;-66
2021/03/07 01:52:50;;;;;;;19.30;9.48;;;-1.80;70.90;;;;;;5054484;28;20017;-66
2021/03/07 01:55:17;;;;;;;16.10;8.80;;;-1.90;70.80;;;;;;5055541;28;20036;-66
2021/03/07 01:57:45;;;;;;;16.80;8.27;;;-2.00;71.00;;;;;;5092165;28;20420;-66
2021/03/07 02:00:12;;;;;;;19.15;9.55;;;-2.10;71.30;;;;;;5076913;28;20036;-66
2021/03/07 02:02:38;;;;;;;16.70;9.30;;;-2.20;71.40;;;;;;5058657;28;20036;-66
2021/03/07 02:05:10;;;;;;;17.05;9.60;;;-2.20;71.60;;;;;;5058290;28;20120;-66
2021/03/07 02:07:37;;;;;;;15.98;9.77;;;-2.20;71.90;;;;;;5058388;28;20386;-67
2021/03/07 02:10:05;;;;;;;19.83;11.77;;;-2.20;71.80;;;;;;5076523;28;20101;-65
2021/03/07 02:12:31;;;;;;;16.55;10.07;;;-2.30;71.90;;;;;;5076876;28;20024;-66
2021/03/07 02:14:58;;;;;;;21.17;10.63;;;-2.30;72.10;;;;;;5057939;28;20036;-66
2021/03/07 02:17:24;;;;;;;18.58;10.52;;;-2.30;72.10;;;;;;5076304;28;20028;-66
2021/03/07 02:19:52;;;;;;;17.50;9.68;;;-2.30;72.10;;;;;;5075953;28;20031;-66
2021/03/07 02:22:47;;;;;;;19.35;10.00;;;-2.30;72.20;;;;;;5076196;28;20031;-65
2021/03/07 02:25:14;;;;;;;20.80;10.13;;;-2.30;72.70;;;;;;5057601;28;20103;-65
2021/03/07 02:27:40;;;;;;;18.58;9.73;;;-2.30;72.60;;;;;;5058323;28;20478;-65
2021/03/07 02:30:10;;;;;;;16.85;9.25;;;-2.30;72.50;;;;;;5057961;28;20035;-66
2021/03/07 02:32:39;;;;;;;15.77;8.93;;;-2.30;72.50;;;;;;5058060;28;20020;-66
2021/03/07 02:35:11;;;;;;;16.92;8.63;;;-2.40;72.50;;;;;;5057830;28;20020;-66
2021/03/07 02:37:40;;;;;;;17.08;9.20;;;-2.40;72.50;;;;;;5058244;28;20094;-66
2021/03/07 02:40:10;;;;;;;24.27;12.05;;;-2.40;72.40;;;;;;5058187;28;20028;-66
2021/03/07 02:42:39;;;;;;;35.25;16.92;;;-2.40;72.40;;;;;;5057697;28;20024;-66
2021/03/07 02:45:09;;;;;;;44.88;20.23;;;-2.40;72.50;;;;;;5057472;28;20031;-66
2021/03/07 02:47:36;;;;;;;47.25;19.17;;;-2.40;72.50;;;;;;5057808;28;20032;-66
2021/03/07 02:50:08;;;;;;;43.80;19.48;;;-2.40;73.10;;;;;;5057681;28;20039;-66
2021/03/07 02:52:37;;;;;;;33.80;15.13;;;-2.50;72.60;;;;;;5075229;28;20027;-66
2021/03/07 02:55:04;;;;;;;32.47;14.95;;;-2.50;72.70;;;;;;5057402;28;20036;-66
2021/03/07 02:57:31;;;;;;;26.88;12.30;;;-2.50;72.80;;;;;;5075255;28;20025;-66
2021/03/07 02:59:58;;;;;;;23.25;12.27;;;-2.50;72.70;;;;;;5057665;28;20029;-66
2021/03/07 03:02:28;;;;;;;17.38;9.70;;;-2.50;72.70;;;;;;5075927;28;20070;-66
2021/03/07 03:04:56;;;;;;;16.42;8.60;;;-2.50;72.80;;;;;;5057450;28;20024;-66
2021/03/07 03:07:24;;;;;;;16.95;8.35;;;-2.50;73.10;;;;;;5073906;28;20119;-66
2021/03/07 03:09:52;;;;;;;14.93;8.43;;;-2.50;72.80;;;;;;5075046;28;20075;-66
2021/03/07 03:12:20;;;;;;;15.40;8.93;;;-2.50;72.90;;;;;;5075243;28;20043;-66
2021/03/07 03:14:46;;;;;;;18.65;9.05;;;-2.50;72.90;;;;;;5075232;28;20021;-66
2021/03/07 03:17:14;;;;;;;17.60;9.95;;;-2.50;72.90;;;;;;5075009;28;20025;-66
2021/03/07 03:19:42;;;;;;;17.25;9.25;;;-2.60;72.80;;;;;;5075239;28;20017;-66
2021/03/07 03:22:08;;;;;;;18.30;10.48;;;-2.60;72.80;;;;;;5056981;28;20037;-66
2021/03/07 03:24:35;;;;;;;29.77;14.82;;;-2.60;72.90;;;;;;5075011;28;20096;-66
2021/03/07 03:27:01;;;;;;;47.42;20.13;;;-2.70;72.70;;;;;;5074692;28;20029;-66
2021/03/07 03:29:29;;;;;;;51.53;20.15;;;-2.70;72.70;;;;;;5057152;28;20119;-66
2021/03/07 03:31:55;;;;;;;45.90;19.38;;;-2.80;72.80;;;;;;5057020;28;20047;-66
2021/03/07 03:34:21;;;;;;;35.08;15.10;;;-2.80;72.90;;;;;;5056935;28;20074;-66
2021/03/07 03:36:47;;;;;;;27.30;13.13;;;-2.90;72.90;;;;;;5074685;28;20418;-66
2021/03/07 03:39:18;;;;;;;31.08;13.63;;;-2.90;73.00;;;;;;5074893;28;20044;-67
2021/03/07 03:41:47;;;;;;;40.10;16.88;;;-2.90;73.00;;;;;;5074863;28;20020;-66
2021/03/07 03:44:16;;;;;;;49.53;19.23;;;-3.00;73.10;;;;;;5090114;28;20463;-66
2021/03/07 03:46:43;;;;;;;51.53;22.98;;;-3.00;73.10;;;;;;5074582;28;20025;-66
2021/03/07 03:49:17;;;;;;;52.22;21.38;;;-3.00;73.20;;;;;;5074340;28;20104;-66
2021/03/07 03:51:45;;;;;;;67.18;26.35;;;-3.00;73.20;;;;;;5056594;28;20388;-66
2021/03/07 03:54:12;;;;;;;73.28;28.58;;;-3.00;73.20;;;;;;5074219;28;20026;-66
2021/03/07 03:56:38;;;;;;;75.07;27.05;;;-3.00;73.40;;;;;;5074553;28;20036;-66
2021/03/07 03:59:06;;;;;;;73.75;26.77;;;-3.10;73.30;;;;;;5074106;28;20092;-65
2021/03/07 04:01:35;;;;;;;59.83;22.73;;;-3.10;73.60;;;;;;5074311;28;20379;-66
2021/03/07 04:04:04;;;;;;;47.50;17.77;;;-3.10;73.60;;;;;;5056218;28;20131;-66
2021/03/07 04:06:31;;;;;;;48.90;17.63;;;-3.00;73.60;;;;;;5073834;28;20086;-66
2021/03/07 04:08:57;;;;;;;46.28;19.48;;;-3.00;73.60;;;;;;5056008;28;20032;-66
2021/03/07 04:11:23;;;;;;;36.03;16.75;;;-3.00;73.60;;;;;;5089615;28;20059;-66
2021/03/07 04:13:50;;;;;;;35.22;13.95;;;-3.00;73.50;;;;;;5074075;28;20012;-66
2021/03/07 04:16:16;;;;;;;73.85;29.30;;;-3.10;73.50;;;;;;5074042;28;20039;-66
2021/03/07 04:18:45;;;;;;;110.28;36.83;;;-3.10;73.60;;;;;;5073228;28;20078;-66
2021/03/07 04:21:12;;;;;;;114.05;41.10;;;-3.10;73.70;;;;;;5055904;28;20029;-66
2021/03/07 04:23:38;;;;;;;124.78;47.58;;;-3.10;74.10;;;;;;5089204;28;20187;-66
2021/03/07 04:26:05;;;;;;;146.95;50.17;;;-3.20;74.00;;;;;;5056367;28;20126;-66
2021/03/07 04:28:31;;;;;;;116.22;39.38;;;-3.10;74.30;;;;;;5055621;28;20036;-66
2021/03/07 04:30:57;;;;;;;78.70;27.15;;;-3.10;74.40;;;;;;5055661;28;20069;-67
2021/03/07 04:33:23;;;;;;;77.88;28.83;;;-3.00;74.90;;;;;;5073324;28;20032;-66
2021/03/07 04:35:49;;;;;;;59.88;23.83;;;-2.90;75.00;;;;;;5073778;28;20024;-66
2021/03/07 04:38:15;;;;;;;79.70;28.08;;;-2.70;74.90;;;;;;5055660;28;20053;-66
2021/03/07 04:40:41;;;;;;;116.05;39.97;;;-2.60;74.80;;;;;;5073246;28;20573;-67
2021/03/07 04:43:08;;;;;;;121.53;43.88;;;-2.40;74.50;;;;;;5055445;28;20039;-66
2021/03/07 04:45:35;;;;;;;93.00;35.53;;;-2.20;74.60;;;;;;5073636;28;20376;-66
2021/03/07 04:48:01;;;;;;;59.53;24.48;;;-2.00;74.30;;;;;;5055447;28;20048;-67
2021/03/07 04:50:27;;;;;;;55.95;23.35;;;-2.00;73.50;;;;;;5072989;28;20054;-67
2021/03/07 04:52:53;;;;;;;43.08;18.17;;;-1.90;73.20;;;;;;5055437;28;20020;-66
2021/03/07 04:55:19;;;;;;;49.67;20.83;;;-1.90;72.60;;;;;;5073216;28;20031;-67
2021/03/07 04:57:45;;;;;;;47.30;19.05;;;-2.00;72.00;;;;;;5073135;28;20029;-66
2021/03/07 05:00:14;;;;;;;46.95;20.85;;;-2.00;71.80;;;;;;5073134;28;20032;-66
2021/03/07 05:02:40;;;;;;;50.28;22.45;;;-2.10;71.90;;;;;;5073112;28;20024;-67
2021/03/07 05:05:06;;;;;;;40.22;18.95;;;-2.10;71.90;;;;;;5073075;28;20078;-67
2021/03/07 05:07:32;;;;;;;50.65;22.23;;;-2.10;71.80;;;;;;5048440;28;20438;-67
2021/03/07 05:09:58;;;;;;;49.78;21.08;;;-2.10;72.10;;;;;;5079570;28;20036;-66
2021/03/07 05:12:24;;;;;;;57.63;20.55;;;-2.00;72.60;;;;;;5067876;28;20032;-67
2021/03/07 05:14:50;;;;;;;50.33;22.95;;;-1.80;72.80;;;;;;5067909;28;20036;-67
2021/03/07 05:17:17;;;;;;;64.72;28.73;;;-1.60;72.10;;;;;;5078622;28;21389;-67
2021/03/07 05:19:43;;;;;;;71.18;29.95;;;-1.40;71.70;;;;;;5057644;28;20016;-67
2021/03/07 05:22:09;;;;;;;98.25;38.05;;;-1.40;70.90;;;;;;5046382;28;20035;-68
2021/03/07 05:24:35;;;;;;;71.30;29.10;;;-1.20;71.10;;;;;;5053308;28;20391;-67
2021/03/07 05:27:05;;;;;;;89.57;37.58;;;-1.20;70.50;;;;;;5053946;28;20029;-69
2021/03/07 05:29:36;;;;;;;88.25;35.40;;;-1.10;70.20;;;;;;5046284;28;20060;-67
2021/03/07 05:32:03;;;;;;;98.00;37.28;;;-1.00;70.20;;;;;;5067048;28;20020;-67
2021/03/07 05:34:29;;;;;;;89.53;36.63;;;-0.90;70.20;;;;;;5049879;28;20066;-67
2021/03/07 05:36:55;;;;;;;89.45;35.45;;;-0.70;68.90;;;;;;5066829;28;20424;-67
2021/03/07 05:39:22;;;;;;;82.72;33.33;;;-0.80;67.60;;;;;;5068623;28;20052;-67
2021/03/07 05:41:48;;;;;;;84.78;35.05;;;-0.80;68.20;;;;;;5066164;28;20092;-67
2021/03/07 05:44:15;;;;;;;69.10;27.92;;;-0.70;68.30;;;;;;5054180;28;20036;-68
2021/03/07 05:46:40;;;;;;;78.60;31.95;;;-0.60;67.80;;;;;;5072518;28;20024;-68
2021/03/07 05:49:09;;;;;;;74.55;27.55;;;-0.60;68.00;;;;;;5054240;28;20031;-67
2021/03/07 05:51:36;;;;;;;76.13;30.30;;;-0.50;67.80;;;;;;5054714;28;20025;-68
2021/03/07 05:54:02;;;;;;;75.88;31.05;;;-0.40;67.90;;;;;;5049611;28;20036;-67
2021/03/07 05:56:29;;;;;;;81.38;32.00;;;-0.30;67.60;;;;;;5058506;28;20562;-68
2021/03/07 05:58:57;;;;;;;106.00;38.78;;;-0.20;66.70;;;;;;5062578;28;20150;-73
2021/03/07 06:01:23;;;;;;;83.32;30.73;;;-0.10;66.90;;;;;;5039715;28;20052;-68
2021/03/07 06:03:49;;;;;;;90.50;35.28;;;0.00;66.50;;;;;;5049912;28;20048;-70
2021/03/07 06:06:15;;;;;;;71.05;30.92;;;0.10;65.70;;;;;;5036874;28;20061;-68
2021/03/07 06:08:41;;;;;;;90.15;35.65;;;0.20;65.60;;;;;;5048175;28;20028;-68
2021/03/07 06:11:07;;;;;;;94.00;37.00;;;0.50;66.60;;;;;;5057313;28;20025;-68
2021/03/07 06:13:43;;;;;;;86.13;31.48;;;0.70;65.10;;;;;;5061135;28;20016;-68
2021/03/07 06:16:09;;;;;;;;;;;0.80;64.40;;;;;;5062530;28;20024;-67
2021/03/07 06:18:39;;;;;;;;;;;0.90;63.30;;;;;;5069713;28;19905;-69
2021/03/07 06:21:32;;;;;;;79.38;33.72;;;0.90;63.00;;;;;;5062695;28;19909;-67
2021/03/07 06:24:00;;;;;;;76.93;31.80;;;0.80;62.60;;;;;;5048268;28;20411;-68
2021/03/07 06:26:26;;;;;;;108.35;39.90;;;0.80;62.30;;;;;;5075010;28;20077;-68
2021/03/07 06:29:09;;;;;;;83.25;33.13;;;0.90;62.90;;;;;;5056535;28;20495;-72
2021/03/07 06:31:35;;;;;;;94.82;38.13;;;1.00;62.80;;;;;;5050045;28;20379;-70
2021/03/07 06:34:01;;;;;;;70.50;25.70;;;1.10;62.70;;;;;;5049911;28;20044;-70
2021/03/07 06:36:28;;;;;;;92.68;38.67;;;1.10;61.70;;;;;;5053133;28;20450;-70
2021/03/07 06:38:59;;;;;;;62.22;25.40;;;1.10;62.40;;;;;;5042746;28;20097;-69
2021/03/07 06:41:28;;;;;;;73.95;29.10;;;1.40;62.90;;;;;;5051376;28;20021;-70
2021/03/07 06:44:14;;;;;;;72.70;27.17;;;1.50;61.60;;;;;;5066261;28;20056;-68
2021/03/07 06:46:45;;;;;;;72.35;27.20;;;1.60;62.20;;;;;;5055590;28;20091;-69
2021/03/07 06:49:26;;;;;;;57.38;25.17;;;1.90;61.60;;;;;;5060840;28;20411;-69
2021/03/07 06:51:52;;;;;;;38.63;16.98;;;2.10;61.20;;;;;;5061582;28;20095;-69
2021/03/07 06:54:18;;;;;;;50.55;23.80;;;2.20;61.10;;;;;;5047797;28;20074;-70
2021/03/07 06:56:49;;;;;;;40.88;16.58;;;2.50;61.80;;;;;;5054268;28;20028;-69
2021/03/07 06:59:21;;;;;;;40.63;17.98;;;2.70;60.00;;;;;;5055707;28;20052;-73
2021/03/07 07:01:55;;;;;;;33.42;13.40;;;2.80;59.70;;;;;;5056036;28;20021;-68
2021/03/07 07:04:23;;;;;;;35.08;13.48;;;3.00;59.40;;;;;;5087875;28;20425;-71
2021/03/07 07:07:07;;;;;;;68.13;28.35;;;2.90;58.50;;;;;;5053947;28;20433;-70
2021/03/07 07:09:33;;;;;;;54.83;22.70;;;2.80;58.60;;;;;;5049862;28;20444;-70
2021/03/07 07:12:00;;;;;;;82.55;33.40;;;2.90;57.80;;;;;;5071243;28;20021;-70
2021/03/07 07:14:40;;;;;;;86.00;32.20;;;2.90;57.80;;;;;;5050752;28;20025;-69
2021/03/07 07:17:11;;;;;;;101.75;38.45;;;3.00;57.80;;;;;;5058897;28;20036;-69
2021/03/07 07:19:41;;;;;;;94.00;31.48;;;3.10;58.00;;;;;;5054761;28;20021;-69
2021/03/07 07:22:08;;;;;;;86.38;32.92;;;3.20;57.50;;;;;;5048992;28;20028;-68
2021/03/07 07:24:35;;;;;;;62.75;28.20;;;3.40;57.90;;;;;;5063158;28;20040;-70
2021/03/07 07:27:01;;;;;;;66.53;26.77;;;3.60;57.70;;;;;;5064924;28;20055;-69
2021/03/07 07:29:27;;;;;;;48.78;18.92;;;3.80;57.50;;;;;;5056006;28;20493;-69
2021/03/07 07:32:32;;;;;;;36.95;17.20;;;3.90;56.80;;;;;;5070365;28;20049;-68
2021/03/07 07:35:10;;;;;;;53.60;13.45;;;4.30;57.30;;;;;;5046999;28;20125;-70
2021/03/07 07:37:47;;;;;;;22.98;10.80;;;4.90;57.00;;;;;;5054814;28;20041;-68
2021/03/07 07:40:13;;;;;;;30.17;12.27;;;5.30;56.80;;;;;;5050473;28;20387;-69
2021/03/07 07:42:39;;;;;;;20.15;10.65;;;5.80;56.30;;;;;;5068597;28;20028;-69
2021/03/07 07:45:14;;;;;;;23.20;11.57;;;6.10;56.10;;;;;;5045443;28;20083;-69
2021/03/07 07:47:48;;;;;;;20.50;10.55;;;6.50;54.80;;;;;;5047814;28;20039;-69
2021/03/07 07:53:04;;;;;;;26.27;11.50;;;7.10;53.50;;;;;;5061306;28;20037;-74
2021/03/07 07:55:43;;;;;;;19.75;11.10;;;7.50;53.80;;;;;;5051895;28;20026;-70
2021/03/07 07:58:10;;;;;;;19.90;11.07;;;8.10;52.60;;;;;;5049270;28;20028;-70
2021/03/07 08:00:48;;;;;;;24.08;12.15;;;8.50;52.10;;;;;;5076495;28;20027;-71
2021/03/07 08:03:35;;;;;;;19.35;11.80;;;9.00;50.70;;;;;;5062297;28;20398;-70
2021/03/07 08:06:24;;;;;;;20.52;11.77;;;9.30;49.70;;;;;;5054009;28;20032;-70
2021/03/07 08:08:51;;;;;;;23.08;12.32;;;9.60;49.10;;;;;;5075409;28;20485;-70
2021/03/07 08:11:22;;;;;;;29.83;13.85;;;10.00;48.10;;;;;;5049927;28;20029;-70
2021/03/07 08:14:06;;;;;;;42.10;21.20;;;10.00;46.50;;;;;;5046392;28;20073;-71
2021/03/07 08:16:36;;;;;;;24.58;14.00;;;9.60;45.10;;;;;;5064792;28;20112;-70
2021/03/07 08:19:02;;;;;;;23.30;13.50;;;9.20;45.30;;;;;;5042654;28;20060;-70
2021/03/07 08:21:28;;;;;;;27.25;13.45;;;9.00;46.50;;;;;;5055629;28;20060;-70
2021/03/07 08:24:00;;;;;;;28.65;14.82;;;9.20;46.10;;;;;;5066653;28;20025;-69
2021/03/07 08:26:50;;;;;;;28.58;15.52;;;9.40;46.50;;;;;;5072771;28;20471;-74
2021/03/07 08:29:38;;;;;;;24.40;12.63;;;9.70;46.50;;;;;;5053932;28;20467;-70
2021/03/07 08:32:25;;;;;;;18.23;11.75;;;10.20;46.20;;;;;;5052450;28;20025;-69
2021/03/07 08:34:52;;;;;;;35.92;18.90;;;10.60;45.30;;;;;;5072563;28;20074;-73
2021/03/07 08:37:17;;;;;;;23.30;13.55;;;11.00;44.60;;;;;;5054263;28;20029;-72
2021/03/07 08:39:43;;;;;;;25.00;12.38;;;11.30;42.70;;;;;;5076637;28;20383;-72
2021/03/07 08:42:09;;;;;;;35.47;15.77;;;11.00;41.80;;;;;;5057325;28;20029;-73
2021/03/07 08:44:35;;;;;;;54.67;22.50;;;10.60;42.20;;;;;;5059945;28;20029;-73
2021/03/07 08:47:01;;;;;;;49.70;20.90;;;10.10;41.50;;;;;;5066099;28;20036;-72
2021/03/07 08:49:30;;;;;;;72.63;30.75;;;9.60;41.90;;;;;;5064654;28;20028;-71
2021/03/07 08:52:14;;;;;;;92.93;37.92;;;9.50;43.10;;;;;;5047614;28;20119;-73
2021/03/07 08:54:40;;;;;;;57.53;24.23;;;9.40;43.80;;;;;;5049036;28;20024;-67
2021/03/07 08:57:08;;;;;;;38.78;17.73;;;9.60;43.50;;;;;;5062554;28;20498;-70
2021/03/07 08:59:34;;;;;;;47.53;16.35;;;9.80;43.80;;;;;;5062009;28;20025;-69
2021/03/07 09:02:01;;;;;;;36.10;14.95;;;10.00;43.30;;;;;;5071171;28;20024;-68
2021/03/07 09:04:35;;;;;;;39.85;18.00;;;10.00;43.00;;;;;;5076112;28;20037;-69
2021/03/07 09:07:01;;;;;;;33.10;15.65;;;10.10;42.90;;;;;;5052779;28;20392;-69
2021/03/07 09:09:27;;;;;;;69.95;30.08;;;10.20;43.20;;;;;;5066682;28;20032;-69
2021/03/07 09:12:01;;;;;;;33.42;15.82;;;10.10;41.80;;;;;;5049352;28;20028;-69
2021/03/07 09:14:31;;;;;;;47.47;21.25;;;10.00;41.90;;;;;;5067655;28;20543;-69
2021/03/07 09:16:59;;;;;;;41.35;16.98;;;10.00;42.90;;;;;;5047411;28;20089;-69
2021/03/07 09:19:28;;;;;;;40.08;17.60;;;10.40;42.70;;;;;;5059983;28;20021;-74
2021/03/07 09:22:16;;;;;;;65.32;23.50;;;10.50;42.20;;;;;;5044868;28;20029;-73
2021/03/07 09:24:53;;;;;;;31.40;15.38;;;10.50;41.40;;;;;;5066108;28;20066;-74
2021/03/07 09:27:20;;;;;;;43.08;20.80;;;10.30;41.70;;;;;;5058119;28;20541;-74
2021/03/07 09:30:00;;;;;;;38.80;17.27;;;10.10;41.90;;;;;;5054686;28;20028;-74
2021/03/07 09:32:46;;;;;;;44.63;17.17;;;10.00;42.60;;;;;;5048814;28;20024;-74
2021/03/07 09:35:34;;;;;;;44.72;22.05;;;10.20;43.30;;;;;;5049010;28;20534;-74
2021/03/07 09:38:08;;;;;;;68.55;24.05;;;10.70;43.20;;;;;;5054013;28;20060;-78
2021/03/07 09:40:37;;;;;;;34.80;15.27;;;11.10;42.70;;;;;;5050849;28;20426;-68
2021/03/07 09:43:15;;;;;;;44.65;22.40;;;11.30;42.40;;;;;;5051309;28;20029;-68
2021/03/07 09:45:46;;;;;;;80.35;33.45;;;11.60;41.00;;;;;;5067795;28;20029;-69
2021/03/07 09:48:14;;;;;;;102.07;43.65;;;11.50;41.10;;;;;;5064148;28;20148;-68
2021/03/07 09:50:44;;;;;;;73.88;30.05;;;11.30;40.80;;;;;;5050387;28;20474;-68
2021/03/07 09:53:10;;;;;;;76.22;33.08;;;11.10;40.90;;;;;;5052836;28;20029;-68
2021/03/07 09:55:36;;;;;;;61.55;30.20;;;10.70;41.00;;;;;;5062665;28;20037;-69
2021/03/07 09:58:07;;;;;;;81.18;32.40;;;10.70;42.20;;;;;;5048835;28;20028;-70
2021/03/07 10:00:34;;;;;;;46.30;21.73;;;10.70;41.80;;;;;;5068051;28;20040;-69
2021/03/07 10:03:01;;;;;;;27.75;15.88;;;10.70;42.50;;;;;;5052599;28;20387;-69
2021/03/07 10:05:27;;;;;;;64.28;29.90;;;11.10;42.70;;;;;;5052435;28;20029;-69
2021/03/07 10:07:53;;;;;;;33.17;17.95;;;11.40;42.20;;;;;;5051026;28;20025;-70
2021/03/07 10:10:21;;;;;;;18.55;10.27;;;11.70;42.00;;;;;;5069373;28;20471;-69
2021/03/07 10:12:55;;;;;;;21.85;12.75;;;12.10;41.50;;;;;;5065251;28;20086;-69
2021/03/07 10:15:29;;;;;;;28.98;15.30;;;12.20;41.00;;;;;;5055133;28;20029;-69
2021/03/07 10:17:58;;;;;;;21.27;13.10;;;12.60;41.50;;;;;;5045554;28;20063;-67
2021/03/07 10:20:32;;;;;;;20.45;13.88;;;13.20;40.60;;;;;;5052821;28;20028;-68
2021/03/07 10:22:58;;;;;;;22.08;12.85;;;13.50;40.40;;;;;;5068901;28;20107;-73
2021/03/07 10:25:30;;;;;;;18.20;12.23;;;14.00;40.10;;;;;;5086393;28;20067;-79
2021/03/07 10:28:03;;;;;;;18.95;12.07;;;14.30;38.80;;;;;;5073121;28;20029;-85
2021/03/07 10:30:41;;;;;;;26.85;12.30;;;14.20;38.70;;;;;;5074499;28;20021;-86
2021/03/07 10:33:32;;;;;;;20.80;12.32;;;13.90;38.40;;;;;;5071333;28;20391;-81
2021/03/07 10:36:11;;;;;;;18.02;12.10;;;13.60;38.70;;;;;;5058404;28;20509;-81
2021/03/07 10:38:41;;;;;;;17.23;12.18;;;12.90;38.60;;;;;;5064469;28;20044;-83
2021/03/07 10:41:32;;;;;;;21.27;12.02;;;12.60;39.00;;;;;;5054511;28;20091;-81
2021/03/07 10:44:07;;;;;;;18.80;11.48;;;12.20;38.90;;;;;;5060755;28;20118;-80
2021/03/07 10:46:44;;;;;;;18.63;12.40;;;11.90;39.70;;;;;;5051788;28;20052;-76
2021/03/07 10:49:14;;;;;;;17.35;11.77;;;11.60;40.20;;;;;;5052593;28;20474;-69
2021/03/07 10:51:40;;;;;;;17.52;12.45;;;11.40;40.20;;;;;;5064552;28;20021;-78
2021/03/07 10:54:06;;;;;;;16.88;10.52;;;11.20;40.40;;;;;;5053555;28;20031;-74
2021/03/07 10:56:34;;;;;;;14.30;9.85;;;10.90;40.60;;;;;;5053124;28;20383;-73
2021/03/07 10:59:00;;;;;;;14.82;10.07;;;10.60;40.30;;;;;;5054597;28;20103;-70
2021/03/07 11:01:27;;;;;;;16.55;10.55;;;10.10;40.40;;;;;;5055915;28;20070;-84
2021/03/07 11:03:53;;;;;;;17.80;8.82;;;9.70;40.70;;;;;;5056241;28;20029;-83
2021/03/07 11:06:19;;;;;;;14.27;10.60;;;9.30;41.20;;;;;;5070555;28;20430;-75
2021/03/07 11:08:49;;;;;;;15.65;10.23;;;8.90;41.80;;;;;;5046722;28;20025;-84
2021/03/07 11:11:15;;;;;;;17.20;10.88;;;8.60;42.50;;;;;;5052933;28;20029;-79
2021/03/07 11:13:41;;;;;;;18.20;10.50;;;8.40;42.80;;;;;;5054324;28;20041;-84
2021/03/07 11:16:08;;;;;;;14.70;9.93;;;8.40;43.30;;;;;;5049549;28;20068;-80
2021/03/07 11:18:35;;;;;;;16.67;11.13;;;8.70;43.50;;;;;;5059461;28;20051;-84
2021/03/07 11:21:02;;;;;;;17.10;9.65;;;8.80;43.70;;;;;;5077568;28;20104;-89
2021/03/07 11:23:28;;;;;;;15.75;11.00;;;9.10;43.90;;;;;;5059908;28;20121;-88
2021/03/07 11:25:54;;;;;;;21.42;12.25;;;9.20;43.80;;;;;;5049131;28;20111;-89
2021/03/07 11:28:19;;;;;;;18.10;12.38;;;9.20;43.50;;;;;;5064992;28;20029;-88
2021/03/07 11:30:45;;;;;;;18.00;9.45;;;9.10;43.50;;;;;;5047901;28;20111;-85
2021/03/07 11:33:11;;;;;;;14.93;10.25;;;8.80;43.40;;;;;;5069111;28;20074;-88
2021/03/07 11:35:37;;;;;;;13.93;8.98;;;8.60;43.60;;;;;;5055987;28;20059;-89
2021/03/07 11:38:03;;;;;;;16.95;11.60;;;8.40;43.60;;;;;;5056272;28;20060;-88
2021/03/07 11:40:29;;;;;;;21.77;12.95;;;8.30;43.90;;;;;;5051862;28;20037;-85
2021/03/07 11:42:56;;;;;;;16.48;10.40;;;8.20;44.20;;;;;;5054158;28;20025;-89
2021/03/07 11:45:23;;;;;;;17.80;10.95;;;8.00;44.40;;;;;;5049766;28;20525;-87
2021/03/07 11:47:49;;;;;;;16.13;10.50;;;7.70;44.70;;;;;;5043853;28;20024;-82
2021/03/07 11:50:15;;;;;;;17.58;11.20;;;7.50;45.20;;;;;;5057362;28;20044;-77
2021/03/07 11:52:41;;;;;;;18.27;10.75;;;7.30;45.70;;;;;;5062282;28;20016;-78
2021/03/07 11:55:08;;;;;;;15.35;9.43;;;7.20;46.10;;;;;;5069159;28;20360;-79
2021/03/07 11:57:34;;;;;;;19.50;11.35;;;7.00;46.30;;;;;;5050233;28;20025;-78
2021/03/07 12:00:05;;;;;;;28.45;11.90;;;6.90;46.60;;;;;;5063502;28;20036;-78
2021/03/07 12:02:30;;;;;;;16.63;10.48;;;6.80;47.30;;;;;;5074161;28;20047;-78
2021/03/07 12:04:56;;;;;;;23.58;12.13;;;6.70;47.50;;;;;;5056324;28;20020;-79
2021/03/07 12:07:22;;;;;;;19.92;12.02;;;6.60;47.70;;;;;;5056427;28;20063;-78
2021/03/07 12:09:48;;;;;;;20.00;11.98;;;6.50;48.00;;;;;;5055827;28;20033;-78
2021/03/07 12:12:14;;;;;;;16.45;10.38;;;6.50;48.20;;;;;;5074229;28;20116;-78
2021/03/07 12:14:41;;;;;;;16.23;11.13;;;6.50;48.10;;;;;;5073948;28;20028;-78
2021/03/07 12:17:06;;;;;;;16.95;11.00;;;6.40;48.00;;;;;;5074063;28;20115;-78
2021/03/07 12:19:32;;;;;;;21.27;11.25;;;6.30;48.20;;;;;;5074135;28;20112;-78
2021/03/07 12:21:58;;;;;;;16.85;11.00;;;6.20;48.60;;;;;;5055924;28;20024;-79
2021/03/07 12:24:24;;;;;;;17.42;10.60;;;6.20;48.70;;;;;;5074018;28;20439;-78
2021/03/07 12:26:49;;;;;;;13.05;8.82;;;6.20;48.90;;;;;;5074265;28;20032;-78
2021/03/07 12:29:15;;;;;;;18.83;10.05;;;6.20;49.10;;;;;;5073778;28;20526;-78
2021/03/07 12:31:41;;;;;;;13.82;8.95;;;6.10;49.30;;;;;;5055916;28;20438;-79
2021/03/07 12:34:07;;;;;;;15.45;10.02;;;6.20;49.30;;;;;;5073863;28;20111;-79
2021/03/07 12:36:32;;;;;;;14.88;9.35;;;6.20;49.30;;;;;;5073948;28;20024;-79
2021/03/07 12:39:00;;;;;;;16.15;8.85;;;6.20;49.60;;;;;;5072772;28;20052;-79
2021/03/07 12:41:25;;;;;;;12.68;7.95;;;6.20;50.20;;;;;;5071559;28;20021;-79
2021/03/07 12:43:51;;;;;;;15.07;9.57;;;6.20;49.30;;;;;;5072431;28;20494;-78